createdAt,value
2018-05-04T00:01:30.904Z,7.67
2018-05-04T00:03:58.488Z,8.63
2018-05-04T00:06:26.253Z,9.80
2018-05-04T00:08:54.102Z,10.17
2018-05-04T00:11:21.733Z,12.43
2018-05-04T00:13:49.281Z,10.70
2018-05-04T00:16:17.294Z,9.87
2018-05-04T00:18:45.299Z,8.10
2018-05-04T00:21:13.068Z,7.97
2018-05-04T00:23:41.382Z,8.17
2018-05-04T00:26:09.316Z,7.37
2018-05-04T00:28:37.041Z,8.23
2018-05-04T00:31:04.733Z,7.97
2018-05-04T00:33:33.080Z,9.20
2018-05-04T00:36:01.040Z,9.03
2018-05-04T00:38:28.778Z,9.20
2018-05-04T00:40:56.368Z,8.53
2018-05-04T00:43:24.076Z,9.47
2018-05-04T00:45:52.391Z,8.27
2018-05-04T00:48:20.180Z,8.13
2018-05-04T00:50:48.304Z,8.80
2018-05-04T00:53:16.065Z,8.90
2018-05-04T00:55:43.757Z,9.00
2018-05-04T00:58:11.580Z,8.83
2018-05-04T01:00:39.296Z,12.27
2018-05-04T01:03:07.140Z,13.67
2018-05-04T01:05:34.740Z,12.03
2018-05-04T01:08:02.757Z,11.47
2018-05-04T01:10:30.525Z,10.80
2018-05-04T01:12:58.154Z,10.40
2018-05-04T01:15:25.706Z,11.57
2018-05-04T01:17:54.056Z,11.60
2018-05-04T01:20:21.963Z,9.80
2018-05-04T01:22:49.669Z,9.93
2018-05-04T01:25:17.813Z,10.47
2018-05-04T01:27:45.373Z,10.37
2018-05-04T01:30:13.267Z,10.80
2018-05-04T01:32:42.031Z,11.50
2018-05-04T01:35:10.020Z,11.53
2018-05-04T01:37:37.725Z,10.17
2018-05-04T01:40:06.072Z,10.67
2018-05-04T01:42:33.890Z,11.00
2018-05-04T01:45:01.527Z,10.53
2018-05-04T01:47:29.244Z,10.33
2018-05-04T01:49:57.372Z,10.77
2018-05-04T01:52:24.976Z,13.57
2018-05-04T01:54:52.796Z,12.27
2018-05-04T01:57:20.605Z,9.37
2018-05-04T01:59:48.152Z,9.83
2018-05-04T02:02:15.743Z,11.27
2018-05-04T02:04:43.408Z,10.73
2018-05-04T02:07:11.092Z,10.90
2018-05-04T02:09:39.555Z,11.40
2018-05-04T02:12:07.265Z,11.03
2018-05-04T02:14:35.405Z,10.53
2018-05-04T02:17:03.083Z,10.53
2018-05-04T02:19:31.149Z,10.47
2018-05-04T02:21:58.701Z,10.20
2018-05-04T02:24:27.204Z,11.33
2018-05-04T02:26:55.083Z,11.03
2018-05-04T02:29:22.634Z,11.70
2018-05-04T02:31:50.628Z,11.73
2018-05-04T02:34:18.343Z,10.97
2018-05-04T02:36:45.955Z,12.47
2018-05-04T02:39:13.704Z,13.10
2018-05-04T02:41:41.295Z,14.23
2018-05-04T02:44:09.247Z,17.87
2018-05-04T02:46:37.111Z,19.07
2018-05-04T02:49:04.763Z,19.60
2018-05-04T02:51:32.472Z,19.13
2018-05-04T02:54:00.726Z,20.50
2018-05-04T02:56:28.496Z,19.13
2018-05-04T02:58:56.233Z,17.90
2018-05-04T03:01:23.944Z,22.37
2018-05-04T03:03:51.581Z,19.20
2018-05-04T03:06:19.700Z,19.87
2018-05-04T03:08:47.497Z,18.67
2018-05-04T03:11:15.140Z,20.17
2018-05-04T03:13:42.688Z,29.27
2018-05-04T03:16:10.681Z,22.90
2018-05-04T03:18:38.403Z,18.87
2018-05-04T03:21:05.954Z,25.87
2018-05-04T03:23:34.084Z,23.13
2018-05-04T03:26:01.636Z,21.23
2018-05-04T03:28:29.677Z,17.57
2018-05-04T03:30:57.685Z,19.17
2018-05-04T03:33:25.634Z,17.73
2018-05-04T03:35:53.179Z,18.60
2018-05-04T03:38:21.120Z,17.47
2018-05-04T03:40:48.809Z,17.00
2018-05-04T03:43:16.534Z,17.73
2018-05-04T03:45:44.423Z,19.27
2018-05-04T03:48:13.288Z,18.63
2018-05-04T03:50:41.288Z,17.73
2018-05-04T03:53:09.135Z,17.57
2018-05-04T03:55:37.228Z,23.10
2018-05-04T03:58:16.729Z,17.83
2018-05-04T04:04:02.928Z,29.00
2018-05-04T04:06:30.852Z,30.30
2018-05-04T04:08:58.523Z,29.87
2018-05-04T04:11:26.390Z,21.33
2018-05-04T04:13:54.227Z,26.23
2018-05-04T04:16:21.916Z,38.63
2018-05-04T04:18:49.576Z,36.67
2018-05-04T04:21:17.293Z,27.37
2018-05-04T04:23:44.877Z,25.93
2018-05-04T04:26:12.740Z,27.17
2018-05-04T04:28:40.686Z,28.93
2018-05-04T04:31:08.295Z,30.73
2018-05-04T04:33:36.200Z,28.23
2018-05-04T04:36:04.591Z,26.10
2018-05-04T04:38:32.141Z,21.33
2018-05-04T04:41:00.047Z,21.97
2018-05-04T04:43:28.121Z,23.47
2018-05-04T04:45:56.201Z,21.27
2018-05-04T04:48:23.747Z,21.77
2018-05-04T04:50:51.296Z,19.50
2018-05-04T04:53:19.020Z,19.60
2018-05-04T04:55:47.344Z,20.47
2018-05-04T04:58:14.983Z,17.27
2018-05-04T05:00:42.605Z,14.87
2018-05-04T05:03:11.058Z,17.90
2018-05-04T05:05:38.616Z,16.57
2018-05-04T05:08:06.263Z,16.63
2018-05-04T05:10:33.846Z,18.07
2018-05-04T05:13:01.496Z,16.90
2018-05-04T05:15:29.096Z,17.70
2018-05-04T05:17:56.967Z,16.70
2018-05-04T05:20:24.836Z,16.37
2018-05-04T05:22:52.421Z,17.03
2018-05-04T05:25:19.971Z,17.67
2018-05-04T05:27:48.560Z,16.50
2018-05-04T05:30:16.168Z,17.00
2018-05-04T05:32:43.712Z,17.97
2018-05-04T05:35:11.283Z,16.93
2018-05-04T05:37:39.643Z,18.00
2018-05-04T05:40:07.194Z,18.40
2018-05-04T05:42:34.936Z,18.60
2018-05-04T05:45:02.663Z,17.50
2018-05-04T05:47:30.337Z,17.87
2018-05-04T05:49:57.892Z,24.23
2018-05-04T05:52:25.908Z,21.10
2018-05-04T05:54:53.575Z,26.13
2018-05-04T05:57:21.277Z,28.90
2018-05-04T05:59:49.095Z,28.23
2018-05-04T06:02:16.704Z,29.20
2018-05-04T06:04:44.258Z,28.77
2018-05-04T06:07:12.747Z,30.63
2018-05-04T06:09:40.301Z,31.00
2018-05-04T06:12:08.340Z,32.10
2018-05-04T06:14:36.061Z,32.37
2018-05-04T06:17:03.871Z,32.43
2018-05-04T06:19:31.513Z,35.43
2018-05-04T06:21:59.391Z,32.53
2018-05-04T06:24:26.951Z,33.40
2018-05-04T06:26:56.118Z,33.33
2018-05-04T06:29:23.833Z,32.17
2018-05-04T06:31:52.149Z,33.87
2018-05-04T06:34:19.737Z,32.27
2018-05-04T06:36:47.564Z,33.57
2018-05-04T06:39:15.164Z,34.40
2018-05-04T06:41:43.537Z,32.63
2018-05-04T06:44:11.154Z,32.77
2018-05-04T06:46:38.860Z,34.30
2018-05-04T06:49:06.679Z,35.23
2018-05-04T06:51:34.627Z,32.20
2018-05-04T06:54:02.329Z,32.43
2018-05-04T06:56:30.124Z,32.00
2018-05-04T06:58:57.818Z,33.90
2018-05-04T07:01:25.586Z,35.57
2018-05-04T07:03:53.230Z,36.70
2018-05-04T07:06:20.974Z,35.57
2018-05-04T07:08:48.970Z,37.43
2018-05-04T07:11:16.868Z,37.10
2018-05-04T07:13:44.481Z,36.37
2018-05-04T07:16:12.617Z,39.87
2018-05-04T07:18:40.313Z,38.43
2018-05-04T07:21:08.661Z,39.00
2018-05-04T07:23:36.403Z,39.53
2018-05-04T07:26:03.993Z,40.23
2018-05-04T07:28:33.626Z,40.83
2018-05-04T07:31:02.224Z,41.07
2018-05-04T07:33:29.844Z,40.13
2018-05-04T07:35:57.408Z,37.43
2018-05-04T07:38:25.113Z,37.17
2018-05-04T07:40:52.676Z,35.63
2018-05-04T07:43:20.229Z,36.20
2018-05-04T07:45:47.818Z,35.13
2018-05-04T07:48:15.460Z,35.07
2018-05-04T07:50:43.029Z,33.27
2018-05-04T07:53:10.701Z,33.23
2018-05-04T07:55:38.253Z,36.47
2018-05-04T07:58:05.842Z,36.70
2018-05-04T08:00:35.112Z,39.77
2018-05-04T08:03:03.134Z,39.97
2018-05-04T08:05:31.452Z,37.30
2018-05-04T08:07:59.225Z,33.47
2018-05-04T08:10:26.905Z,38.00
2018-05-04T08:12:54.467Z,41.90
2018-05-04T08:15:22.818Z,42.50
2018-05-04T08:17:50.373Z,42.13
2018-05-04T08:20:17.940Z,45.37
2018-05-04T08:22:45.531Z,44.73
2018-05-04T08:25:14.291Z,42.47
2018-05-04T08:27:42.137Z,41.40
2018-05-04T08:30:09.725Z,40.97
2018-05-04T08:32:37.444Z,40.53
2018-05-04T08:35:05.218Z,39.13
2018-05-04T08:37:33.353Z,44.40
2018-05-04T08:40:01.400Z,40.00
2018-05-04T08:42:28.957Z,36.07
2018-05-04T08:44:56.544Z,34.00
2018-05-04T08:47:24.116Z,33.30
2018-05-04T08:49:51.892Z,35.63
2018-05-04T08:52:19.658Z,33.70
2018-05-04T08:54:47.215Z,35.70
2018-05-04T08:57:15.188Z,34.90
2018-05-04T08:59:42.820Z,35.27
2018-05-04T09:02:11.264Z,34.83
2018-05-04T09:04:39.074Z,34.60
2018-05-04T09:07:06.812Z,33.77
2018-05-04T09:09:35.620Z,34.43
2018-05-04T09:12:03.183Z,43.37
2018-05-04T09:14:30.771Z,37.53
2018-05-04T09:16:58.465Z,32.50
2018-05-04T09:19:26.027Z,31.33
2018-05-04T09:21:54.419Z,30.97
2018-05-04T09:24:22.768Z,31.20
2018-05-04T09:26:50.503Z,28.17
2018-05-04T09:29:18.101Z,29.97
2018-05-04T09:31:45.927Z,29.87
2018-05-04T09:34:13.731Z,30.57
2018-05-04T09:36:41.385Z,30.63
2018-05-04T09:39:09.052Z,27.57
2018-05-04T09:41:36.708Z,27.77
2018-05-04T09:44:04.400Z,26.90
2018-05-04T09:46:32.724Z,26.70
2018-05-04T09:49:00.519Z,25.93
2018-05-04T09:51:28.177Z,26.67
2018-05-04T09:53:55.750Z,28.37
2018-05-04T09:56:23.511Z,30.77
2018-05-04T09:58:52.163Z,27.97
2018-05-04T10:01:20.004Z,26.63
2018-05-04T10:03:47.567Z,25.30
2018-05-04T10:06:15.602Z,29.80
2018-05-04T10:08:43.916Z,26.70
2018-05-04T10:11:11.908Z,25.57
2018-05-04T10:13:39.500Z,27.13
2018-05-04T10:16:07.290Z,24.70
2018-05-04T10:18:35.860Z,24.97
2018-05-04T10:21:03.617Z,24.87
2018-05-04T10:23:31.176Z,25.53
2018-05-04T10:25:58.741Z,25.50
2018-05-04T10:28:26.584Z,25.70
2018-05-04T10:30:55.042Z,24.33
2018-05-04T10:33:23.918Z,23.80
2018-05-04T10:35:51.541Z,23.63
2018-05-04T10:38:19.165Z,23.47
2018-05-04T10:40:46.759Z,24.03
2018-05-04T10:43:14.339Z,23.00
2018-05-04T10:45:41.899Z,23.43
2018-05-04T10:48:09.453Z,23.37
2018-05-04T10:50:37.052Z,21.80
2018-05-04T10:53:06.223Z,22.50
2018-05-04T10:55:33.784Z,23.17
2018-05-04T10:58:01.608Z,21.67
2018-05-04T11:00:29.408Z,22.27
2018-05-04T11:02:56.956Z,22.40
2018-05-04T11:05:24.993Z,23.97
2018-05-04T11:07:52.787Z,26.37
2018-05-04T11:10:20.516Z,23.13
2018-05-04T11:12:48.876Z,23.23
2018-05-04T11:15:17.427Z,23.67
2018-05-04T11:17:45.299Z,22.47
2018-05-04T11:20:14.853Z,21.90
2018-05-04T11:22:42.420Z,21.90
2018-05-04T11:25:10.025Z,22.33
2018-05-04T11:27:37.627Z,22.03
2018-05-04T11:30:05.195Z,21.13
2018-05-04T11:32:32.792Z,21.20
2018-05-04T11:35:00.443Z,20.37
2018-05-04T11:37:28.323Z,20.20
2018-05-04T11:39:56.041Z,19.50
2018-05-04T11:42:23.802Z,18.87
2018-05-04T11:44:51.353Z,18.40
2018-05-04T11:47:19.695Z,19.00
2018-05-04T11:49:47.253Z,18.47
2018-05-04T11:52:14.845Z,18.07
2018-05-04T11:54:42.528Z,17.07
2018-05-04T11:57:10.232Z,15.07
2018-05-04T11:59:37.820Z,14.27
2018-05-04T12:02:05.399Z,16.97
2018-05-04T12:04:33.025Z,16.40
2018-05-04T12:07:00.940Z,15.83
2018-05-04T12:09:28.509Z,15.67
2018-05-04T12:11:56.070Z,16.47
2018-05-04T12:14:23.900Z,15.77
2018-05-04T12:16:52.223Z,14.97
2018-05-04T12:19:19.773Z,14.63
2018-05-04T12:21:48.359Z,12.30
2018-05-04T12:24:16.260Z,12.97
2018-05-04T12:26:44.380Z,11.77
2018-05-04T12:29:11.991Z,13.20
2018-05-04T12:31:39.545Z,12.50
2018-05-04T12:34:07.108Z,11.93
2018-05-04T12:36:34.695Z,12.07
2018-05-04T12:39:02.279Z,12.53
2018-05-04T12:41:29.834Z,11.73
2018-05-04T12:43:57.434Z,10.70
2018-05-04T12:46:24.997Z,11.43
2018-05-04T12:48:52.564Z,11.30
2018-05-04T12:51:21.608Z,12.83
2018-05-04T12:53:49.189Z,12.43
2018-05-04T12:56:17.009Z,16.10
2018-05-04T12:58:44.625Z,11.00
2018-05-04T13:01:12.211Z,11.12
2018-05-04T13:03:39.760Z,9.97
2018-05-04T13:06:08.420Z,8.13
2018-05-04T13:08:36.023Z,7.78
2018-05-04T13:11:03.586Z,7.25
2018-05-04T13:13:31.362Z,8.13
2018-05-04T13:15:59.064Z,8.30
2018-05-04T13:18:26.615Z,7.47
2018-05-04T13:20:54.451Z,8.60
2018-05-04T13:23:22.259Z,9.82
2018-05-04T13:25:49.812Z,17.33
2018-05-04T13:28:17.552Z,11.27
2018-05-04T13:30:45.097Z,7.45
2018-05-04T13:33:12.867Z,6.75
2018-05-04T13:35:40.548Z,6.55
2018-05-04T13:38:08.108Z,6.60
2018-05-04T13:40:35.650Z,6.47
2018-05-04T13:43:03.395Z,6.62
2018-05-04T13:45:30.947Z,6.28
2018-05-04T13:47:58.606Z,6.78
2018-05-04T13:50:26.205Z,6.90
2018-05-04T13:52:53.760Z,7.82
2018-05-04T13:55:21.320Z,6.93
2018-05-04T13:57:49.394Z,6.40
2018-05-04T14:00:17.108Z,6.70
2018-05-04T14:02:44.704Z,7.80
2018-05-04T14:05:12.323Z,6.85
2018-05-04T14:07:39.895Z,6.53
2018-05-04T14:10:07.449Z,6.62
2018-05-04T14:12:35.256Z,7.43
2018-05-04T14:15:03.125Z,7.78
2018-05-04T14:17:30.675Z,7.80
2018-05-04T14:19:58.501Z,7.57
2018-05-04T14:22:26.053Z,8.38
2018-05-04T14:24:53.779Z,8.05
2018-05-04T14:27:21.420Z,7.90
2018-05-04T14:29:49.079Z,6.85
2018-05-04T14:32:16.632Z,6.72
2018-05-04T14:34:44.257Z,7.60
2018-05-04T14:37:11.832Z,6.72
2018-05-04T14:39:39.510Z,8.05
2018-05-04T14:42:07.111Z,7.22
2018-05-04T14:44:34.707Z,9.30
2018-05-04T14:47:02.479Z,8.70
2018-05-04T14:49:30.371Z,7.95
2018-05-04T14:51:58.219Z,7.32
2018-05-04T14:54:25.770Z,7.60
2018-05-04T14:56:53.372Z,7.40
2018-05-04T14:59:21.192Z,8.05
2018-05-04T15:01:49.158Z,10.60
2018-05-04T15:04:16.761Z,10.00
2018-05-04T15:06:44.596Z,10.55
2018-05-04T15:09:12.153Z,10.73
2018-05-04T15:11:39.754Z,12.13
2018-05-04T15:14:07.653Z,11.63
2018-05-04T15:16:35.250Z,8.65
2018-05-04T15:19:02.972Z,11.05
2018-05-04T15:21:30.648Z,12.00
2018-05-04T15:23:58.312Z,9.32
2018-05-04T15:26:26.293Z,8.90
2018-05-04T15:28:53.956Z,10.15
2018-05-04T15:31:21.711Z,10.00
2018-05-04T15:33:49.434Z,9.38
2018-05-04T15:36:17.138Z,9.20
2018-05-04T15:38:44.740Z,8.88
2018-05-04T15:41:12.356Z,8.35
2018-05-04T15:43:40.326Z,9.80
2018-05-04T15:46:07.882Z,8.32
2018-05-04T15:48:41.056Z,8.77
2018-05-04T15:51:14.336Z,10.33
2018-05-04T15:53:42.236Z,12.07
2018-05-04T15:56:09.816Z,10.33
2018-05-04T15:58:37.396Z,9.90
2018-05-04T16:01:05.168Z,11.20
2018-05-04T16:03:33.177Z,11.10
2018-05-04T16:06:00.821Z,11.00
2018-05-04T16:08:29.185Z,12.87
2018-05-04T16:10:56.741Z,10.60
2018-05-04T16:13:25.224Z,8.43
2018-05-04T16:15:52.830Z,10.00
2018-05-04T16:18:20.476Z,9.27
2018-05-04T16:20:48.131Z,9.27
2018-05-04T16:23:15.728Z,9.50
2018-05-04T16:25:43.329Z,9.77
2018-05-04T16:28:11.664Z,11.83
2018-05-04T16:30:39.265Z,9.83
2018-05-04T16:33:06.832Z,9.90
2018-05-04T16:35:34.398Z,11.47
2018-05-04T16:38:02.588Z,13.17
2018-05-04T16:40:30.161Z,17.30
2018-05-04T16:42:57.833Z,14.23
2018-05-04T16:45:25.543Z,18.33
2018-05-04T16:50:58.940Z,12.27
2018-05-04T16:53:26.491Z,12.43
2018-05-04T16:55:54.088Z,12.00
2018-05-04T16:58:21.871Z,12.10
2018-05-04T17:00:49.443Z,13.57
2018-05-04T17:03:17.292Z,12.80
2018-05-04T17:05:44.915Z,12.73
2018-05-04T17:08:12.480Z,13.30
2018-05-04T17:10:40.937Z,13.50
2018-05-04T17:13:09.292Z,13.97
2018-05-04T17:15:36.917Z,13.60
2018-05-04T17:18:04.492Z,12.73
2018-05-04T17:20:32.105Z,13.20
2018-05-04T17:23:00.008Z,12.80
2018-05-04T17:25:27.992Z,12.97
2018-05-04T17:27:55.600Z,12.97
2018-05-04T17:30:23.952Z,12.23
2018-05-04T17:32:51.653Z,12.00
2018-05-04T17:35:19.500Z,12.93
2018-05-04T17:37:47.088Z,20.83
2018-05-04T17:40:14.661Z,14.73
2018-05-04T17:42:42.286Z,12.57
2018-05-04T17:45:10.627Z,12.27
2018-05-04T17:47:38.200Z,12.80
2018-05-04T17:50:05.803Z,22.00
2018-05-04T17:52:33.386Z,16.60
2018-05-04T17:55:00.986Z,16.40
2018-05-04T17:57:28.829Z,16.13
2018-05-04T17:59:56.383Z,16.00
2018-05-04T18:02:23.948Z,17.40
2018-05-04T18:04:51.857Z,15.27
2018-05-04T18:07:20.172Z,13.57
2018-05-04T18:09:47.772Z,17.90
2018-05-04T18:12:16.321Z,17.17
2018-05-04T18:14:44.266Z,16.87
2018-05-04T18:17:11.980Z,22.00
2018-05-04T18:19:40.437Z,28.57
2018-05-04T18:22:08.004Z,31.37
2018-05-04T18:24:36.531Z,26.53
2018-05-04T18:27:04.240Z,27.53
2018-05-04T18:29:31.857Z,25.13
2018-05-04T18:31:59.569Z,23.43
2018-05-04T18:34:27.189Z,20.50
2018-05-04T18:36:54.919Z,18.57
2018-05-04T18:39:23.536Z,17.50
2018-05-04T18:41:51.305Z,17.77
2018-05-04T18:44:19.066Z,17.30
2018-05-04T18:46:46.947Z,21.67
2018-05-04T18:49:14.855Z,19.27
2018-05-04T18:51:43.673Z,21.60
2018-05-04T18:54:11.640Z,24.17
2018-05-04T18:56:39.416Z,32.03
2018-05-04T18:59:07.109Z,33.17
2018-05-04T19:01:35.156Z,30.00
2018-05-04T19:04:02.784Z,25.03
2018-05-04T19:06:30.362Z,24.07
2018-05-04T19:08:58.128Z,25.40
2018-05-04T19:11:25.791Z,23.63
2018-05-04T19:13:53.664Z,25.63
2018-05-04T19:16:21.369Z,26.70
2018-05-04T19:18:49.802Z,26.90
2018-05-04T19:21:17.767Z,27.73
2018-05-04T19:23:45.345Z,24.93
2018-05-04T19:26:13.393Z,22.27
2018-05-04T19:28:40.989Z,21.93
2018-05-04T19:31:08.849Z,23.30
2018-05-04T19:33:36.512Z,25.93
2018-05-04T19:36:04.143Z,25.67
2018-05-04T19:38:32.112Z,27.50
2018-05-04T19:40:59.988Z,27.60
2018-05-04T19:43:28.668Z,28.47
2018-05-04T19:45:56.617Z,26.77
2018-05-04T19:48:24.343Z,26.20
2018-05-04T19:50:52.298Z,24.97
2018-05-04T19:53:20.015Z,25.00
2018-05-04T19:55:47.601Z,25.60
2018-05-04T19:58:15.160Z,29.57
2018-05-04T20:00:42.828Z,27.60
2018-05-04T20:03:10.448Z,27.90
2018-05-04T20:05:38.218Z,29.13
2018-05-04T20:08:06.297Z,28.13
2018-05-04T20:10:33.895Z,28.53
2018-05-04T20:13:01.611Z,30.13
2018-05-04T20:15:29.857Z,33.37
2018-05-04T20:17:57.767Z,30.17
2018-05-04T20:20:25.411Z,29.37
2018-05-04T20:22:53.108Z,30.73
2018-05-04T20:25:20.925Z,30.90
2018-05-04T20:27:49.035Z,30.50
2018-05-04T20:30:17.064Z,29.10
2018-05-04T20:32:44.658Z,28.00
2018-05-04T20:35:12.288Z,28.33
2018-05-04T20:37:40.287Z,20.87
2018-05-04T20:40:09.029Z,19.80
2018-05-04T20:42:36.947Z,24.13
2018-05-04T20:45:05.510Z,18.73
2018-05-04T20:47:33.276Z,17.27
2018-05-04T20:50:00.861Z,16.70
2018-05-04T20:52:28.488Z,18.33
2018-05-04T20:54:56.258Z,20.17
2018-05-04T20:57:23.834Z,18.93
2018-05-04T20:59:51.878Z,18.50
2018-05-04T21:02:19.455Z,18.10
2018-05-04T21:04:47.017Z,18.50
2018-05-04T21:07:15.180Z,18.20
2018-05-04T21:09:43.052Z,17.33
2018-05-04T21:12:10.641Z,14.83
2018-05-04T21:14:38.295Z,15.60
2018-05-04T21:17:06.639Z,14.20
2018-05-04T21:19:34.830Z,14.47
2018-05-04T21:22:02.549Z,13.70
2018-05-04T21:24:31.138Z,12.83
2018-05-04T21:26:58.718Z,13.47
2018-05-04T21:29:26.523Z,13.50
2018-05-04T21:31:54.840Z,13.37
2018-05-04T21:34:22.400Z,17.17
2018-05-04T21:36:50.109Z,14.57
2018-05-04T21:39:17.673Z,13.53
2018-05-04T21:41:45.232Z,12.93
2018-05-04T21:44:13.288Z,13.67
2018-05-04T21:46:40.844Z,14.00
2018-05-04T21:49:08.748Z,12.80
2018-05-04T21:51:36.541Z,12.70
2018-05-04T21:54:04.100Z,12.33
2018-05-04T21:56:32.021Z,11.73
2018-05-04T21:59:00.550Z,11.50
2018-05-04T22:01:28.397Z,11.37
2018-05-04T22:03:56.005Z,11.30
2018-05-04T22:06:23.940Z,11.87
2018-05-04T22:08:51.497Z,11.77
2018-05-04T22:11:19.360Z,11.93
2018-05-04T22:13:46.958Z,11.57
2018-05-04T22:16:14.874Z,11.10
2018-05-04T22:18:42.761Z,12.13
2018-05-04T22:21:10.367Z,11.27
2018-05-04T22:23:39.964Z,11.17
2018-05-04T22:26:07.690Z,11.77
2018-05-04T22:28:35.488Z,12.70
2018-05-04T22:31:03.272Z,10.90
2018-05-04T22:33:30.960Z,11.67
2018-05-04T22:35:58.716Z,12.30
2018-05-04T22:38:26.277Z,12.70
2018-05-04T22:40:53.985Z,13.37
2018-05-04T22:43:22.071Z,13.97
2018-05-04T22:45:49.696Z,13.97
2018-05-04T22:48:17.251Z,13.23
2018-05-04T22:50:44.867Z,13.37
2018-05-04T22:53:13.186Z,12.20
2018-05-04T22:55:40.735Z,12.50
2018-05-04T22:58:08.331Z,12.27
2018-05-04T23:00:36.053Z,13.80
2018-05-04T23:03:03.615Z,14.70
2018-05-04T23:05:31.284Z,13.87
2018-05-04T23:07:58.852Z,14.30
2018-05-04T23:10:26.600Z,13.83
2018-05-04T23:12:54.197Z,13.93
2018-05-04T23:15:21.855Z,13.97
2018-05-04T23:17:49.492Z,15.07
2018-05-04T23:20:17.388Z,13.40
2018-05-04T23:22:44.941Z,13.53
2018-05-04T23:25:12.708Z,14.07
2018-05-04T23:27:40.301Z,14.77
2018-05-04T23:30:07.852Z,14.10
2018-05-04T23:32:36.237Z,16.40
2018-05-04T23:35:03.826Z,17.33
2018-05-04T23:37:31.371Z,15.33
2018-05-04T23:39:59.090Z,15.47
2018-05-04T23:42:26.687Z,14.03
2018-05-04T23:44:54.236Z,14.83
2018-05-04T23:47:22.552Z,16.50
2018-05-04T23:49:50.323Z,15.60
2018-05-04T23:52:17.999Z,15.40
2018-05-04T23:54:45.820Z,15.03
2018-05-04T23:57:13.412Z,15.23
2018-05-04T23:59:40.972Z,16.07
